sensor_id;sensor_type;location;lat;lon;timestamp;P1;durP1;ratioP1;P2;durP2;ratioP2
42514;SDS011;28144;49.920;18.730;2024-02-04T00:00:30;3.40;;;2.27;;
42514;SDS011;28144;49.920;18.730;2024-02-04T00:03:16;6.55;;;2.65;;
42514;SDS011;28144;49.920;18.730;2024-02-04T00:05:41;4.23;;;2.50;;
42514;SDS011;28144;49.920;18.730;2024-02-04T00:08:07;3.07;;;2.30;;
42514;SDS011;28144;49.920;18.730;2024-02-04T00:10:33;5.37;;;2.93;;
42514;SDS011;28144;49.920;18.730;2024-02-04T00:13:01;3.67;;;2.50;;
42514;SDS011;28144;49.920;18.730;2024-02-04T00:15:28;2.55;;;1.95;;
42514;SDS011;28144;49.920;18.730;2024-02-04T00:17:54;5.03;;;3.10;;
42514;SDS011;28144;49.920;18.730;2024-02-04T00:20:19;3.57;;;2.13;;
42514;SDS011;28144;49.920;18.730;2024-02-04T00:22:45;4.40;;;2.40;;
42514;SDS011;28144;49.920;18.730;2024-02-04T00:25:11;4.83;;;2.40;;
42514;SDS011;28144;49.920;18.730;2024-02-04T00:27:37;3.90;;;2.35;;
42514;SDS011;28144;49.920;18.730;2024-02-04T00:30:03;2.87;;;2.10;;
42514;SDS011;28144;49.920;18.730;2024-02-04T00:32:29;3.72;;;2.10;;
42514;SDS011;28144;49.920;18.730;2024-02-04T00:34:55;3.80;;;2.33;;
42514;SDS011;28144;49.920;18.730;2024-02-04T00:37:21;3.58;;;2.10;;
42514;SDS011;28144;49.920;18.730;2024-02-04T00:39:47;2.73;;;2.40;;
42514;SDS011;28144;49.920;18.730;2024-02-04T00:42:13;3.00;;;1.93;;
42514;SDS011;28144;49.920;18.730;2024-02-04T00:44:38;2.70;;;2.10;;
42514;SDS011;28144;49.920;18.730;2024-02-04T00:47:04;2.20;;;2.00;;
42514;SDS011;28144;49.920;18.730;2024-02-04T00:49:29;5.27;;;2.07;;
42514;SDS011;28144;49.920;18.730;2024-02-04T00:51:55;2.83;;;1.97;;
42514;SDS011;28144;49.920;18.730;2024-02-04T00:54:21;3.47;;;2.47;;
42514;SDS011;28144;49.920;18.730;2024-02-04T00:56:47;3.87;;;2.50;;
42514;SDS011;28144;49.920;18.730;2024-02-04T00:59:12;3.77;;;2.70;;
42514;SDS011;28144;49.920;18.730;2024-02-04T01:01:38;5.13;;;3.03;;
42514;SDS011;28144;49.920;18.730;2024-02-04T01:04:04;2.70;;;2.03;;
42514;SDS011;28144;49.920;18.730;2024-02-04T01:06:30;3.40;;;2.60;;
42514;SDS011;28144;49.920;18.730;2024-02-04T01:08:56;3.83;;;2.80;;
42514;SDS011;28144;49.920;18.730;2024-02-04T01:11:22;4.03;;;2.10;;
42514;SDS011;28144;49.920;18.730;2024-02-04T01:13:48;2.93;;;2.60;;
42514;SDS011;28144;49.920;18.730;2024-02-04T01:16:14;3.30;;;2.40;;
42514;SDS011;28144;49.920;18.730;2024-02-04T01:18:39;3.27;;;2.50;;
42514;SDS011;28144;49.920;18.730;2024-02-04T01:21:05;3.73;;;2.47;;
42514;SDS011;28144;49.920;18.730;2024-02-04T01:23:30;3.30;;;2.37;;
42514;SDS011;28144;49.920;18.730;2024-02-04T01:25:56;5.93;;;2.60;;
42514;SDS011;28144;49.920;18.730;2024-02-04T01:28:22;6.90;;;2.50;;
42514;SDS011;28144;49.920;18.730;2024-02-04T01:30:48;3.03;;;2.30;;
42514;SDS011;28144;49.920;18.730;2024-02-04T01:33:13;4.17;;;2.40;;
42514;SDS011;28144;49.920;18.730;2024-02-04T01:35:39;3.57;;;2.80;;
42514;SDS011;28144;49.920;18.730;2024-02-04T01:38:05;3.30;;;2.37;;
42514;SDS011;28144;49.920;18.730;2024-02-04T01:40:31;3.07;;;1.70;;
42514;SDS011;28144;49.920;18.730;2024-02-04T01:42:56;3.27;;;2.23;;
42514;SDS011;28144;49.920;18.730;2024-02-04T01:45:22;4.47;;;2.20;;
42514;SDS011;28144;49.920;18.730;2024-02-04T01:47:48;3.60;;;2.20;;
42514;SDS011;28144;49.920;18.730;2024-02-04T01:50:15;3.45;;;2.30;;
42514;SDS011;28144;49.920;18.730;2024-02-04T01:52:41;2.85;;;2.20;;
42514;SDS011;28144;49.920;18.730;2024-02-04T01:55:08;4.78;;;2.10;;
42514;SDS011;28144;49.920;18.730;2024-02-04T01:57:33;2.77;;;2.20;;
42514;SDS011;28144;49.920;18.730;2024-02-04T02:00:00;4.85;;;2.63;;
42514;SDS011;28144;49.920;18.730;2024-02-04T02:02:26;3.28;;;1.80;;
42514;SDS011;28144;49.920;18.730;2024-02-04T02:04:52;2.65;;;2.20;;
42514;SDS011;28144;49.920;18.730;2024-02-04T02:07:18;4.20;;;2.33;;
42514;SDS011;28144;49.920;18.730;2024-02-04T02:09:46;3.50;;;2.07;;
42514;SDS011;28144;49.920;18.730;2024-02-04T02:15:07;2.57;;;2.07;;
42514;SDS011;28144;49.920;18.730;2024-02-04T02:18:40;2.83;;;2.27;;
42514;SDS011;28144;49.920;18.730;2024-02-04T02:23:34;2.80;;;2.30;;
42514;SDS011;28144;49.920;18.730;2024-02-04T02:26:02;3.30;;;2.33;;
42514;SDS011;28144;49.920;18.730;2024-02-04T02:28:28;7.15;;;2.13;;
42514;SDS011;28144;49.920;18.730;2024-02-04T02:30:54;2.00;;;1.80;;
42514;SDS011;28144;49.920;18.730;2024-02-04T02:33:20;2.73;;;2.10;;
42514;SDS011;28144;49.920;18.730;2024-02-04T02:35:46;3.00;;;2.07;;
42514;SDS011;28144;49.920;18.730;2024-02-04T02:41:16;4.87;;;3.73;;
42514;SDS011;28144;49.920;18.730;2024-02-04T02:43:42;3.03;;;1.95;;
42514;SDS011;28144;49.920;18.730;2024-02-04T02:46:09;4.15;;;2.05;;
42514;SDS011;28144;49.920;18.730;2024-02-04T02:48:35;3.10;;;1.97;;
42514;SDS011;28144;49.920;18.730;2024-02-04T02:51:01;2.38;;;2.08;;
42514;SDS011;28144;49.920;18.730;2024-02-04T02:53:26;2.67;;;2.10;;
42514;SDS011;28144;49.920;18.730;2024-02-04T02:55:52;2.33;;;1.87;;
42514;SDS011;28144;49.920;18.730;2024-02-04T02:58:18;3.17;;;2.00;;
42514;SDS011;28144;49.920;18.730;2024-02-04T03:00:43;2.83;;;1.80;;
42514;SDS011;28144;49.920;18.730;2024-02-04T03:03:10;2.33;;;1.95;;
42514;SDS011;28144;49.920;18.730;2024-02-04T03:05:36;2.70;;;1.70;;
42514;SDS011;28144;49.920;18.730;2024-02-04T03:08:03;2.38;;;1.95;;
42514;SDS011;28144;49.920;18.730;2024-02-04T03:10:29;2.47;;;2.10;;
42514;SDS011;28144;49.920;18.730;2024-02-04T03:12:55;2.37;;;1.97;;
42514;SDS011;28144;49.920;18.730;2024-02-04T03:15:20;2.93;;;2.37;;
42514;SDS011;28144;49.920;18.730;2024-02-04T03:17:46;3.13;;;2.30;;
42514;SDS011;28144;49.920;18.730;2024-02-04T03:20:12;3.57;;;2.73;;
42514;SDS011;28144;49.920;18.730;2024-02-04T03:22:37;4.07;;;3.20;;
42514;SDS011;28144;49.920;18.730;2024-02-04T03:25:03;3.17;;;2.67;;
42514;SDS011;28144;49.920;18.730;2024-02-04T03:27:29;3.07;;;2.77;;
42514;SDS011;28144;49.920;18.730;2024-02-04T03:29:55;4.07;;;3.03;;
42514;SDS011;28144;49.920;18.730;2024-02-04T03:32:21;3.57;;;3.10;;
42514;SDS011;28144;49.920;18.730;2024-02-04T03:34:47;3.30;;;3.00;;
42514;SDS011;28144;49.920;18.730;2024-02-04T03:37:12;2.63;;;2.20;;
42514;SDS011;28144;49.920;18.730;2024-02-04T03:39:38;3.50;;;2.70;;
42514;SDS011;28144;49.920;18.730;2024-02-04T03:42:04;3.63;;;2.63;;
42514;SDS011;28144;49.920;18.730;2024-02-04T03:44:30;3.65;;;2.70;;
42514;SDS011;28144;49.920;18.730;2024-02-04T03:46:56;4.13;;;2.77;;
42514;SDS011;28144;49.920;18.730;2024-02-04T03:49:21;2.77;;;2.37;;
42514;SDS011;28144;49.920;18.730;2024-02-04T03:51:47;3.77;;;2.57;;
42514;SDS011;28144;49.920;18.730;2024-02-04T03:54:13;5.60;;;3.40;;
42514;SDS011;28144;49.920;18.730;2024-02-04T03:56:39;4.00;;;3.50;;
42514;SDS011;28144;49.920;18.730;2024-02-04T03:59:04;5.07;;;3.50;;
42514;SDS011;28144;49.920;18.730;2024-02-04T04:01:31;6.70;;;2.73;;
42514;SDS011;28144;49.920;18.730;2024-02-04T04:03:57;8.40;;;4.03;;
42514;SDS011;28144;49.920;18.730;2024-02-04T04:06:23;5.03;;;3.77;;
42514;SDS011;28144;49.920;18.730;2024-02-04T04:08:49;6.67;;;3.73;;
42514;SDS011;28144;49.920;18.730;2024-02-04T04:11:15;5.03;;;3.93;;
42514;SDS011;28144;49.920;18.730;2024-02-04T04:13:41;6.43;;;4.20;;
42514;SDS011;28144;49.920;18.730;2024-02-04T04:16:06;6.47;;;4.93;;
42514;SDS011;28144;49.920;18.730;2024-02-04T04:18:32;4.78;;;3.80;;
42514;SDS011;28144;49.920;18.730;2024-02-04T04:20:58;4.73;;;3.80;;
42514;SDS011;28144;49.920;18.730;2024-02-04T04:23:24;7.13;;;4.87;;
42514;SDS011;28144;49.920;18.730;2024-02-04T04:25:49;10.40;;;7.10;;
42514;SDS011;28144;49.920;18.730;2024-02-04T04:28:15;5.23;;;4.63;;
42514;SDS011;28144;49.920;18.730;2024-02-04T04:30:41;5.87;;;4.53;;
42514;SDS011;28144;49.920;18.730;2024-02-04T04:33:07;6.30;;;5.00;;
42514;SDS011;28144;49.920;18.730;2024-02-04T04:35:33;5.68;;;4.43;;
42514;SDS011;28144;49.920;18.730;2024-02-04T04:37:59;4.78;;;3.65;;
42514;SDS011;28144;49.920;18.730;2024-02-04T04:40:25;9.27;;;4.50;;
42514;SDS011;28144;49.920;18.730;2024-02-04T04:42:51;7.23;;;4.63;;
42514;SDS011;28144;49.920;18.730;2024-02-04T04:45:17;5.47;;;3.60;;
42514;SDS011;28144;49.920;18.730;2024-02-04T04:47:43;9.00;;;6.43;;
42514;SDS011;28144;49.920;18.730;2024-02-04T04:50:08;7.03;;;5.77;;
42514;SDS011;28144;49.920;18.730;2024-02-04T04:52:34;9.52;;;8.52;;
42514;SDS011;28144;49.920;18.730;2024-02-04T04:55:00;8.60;;;7.63;;
42514;SDS011;28144;49.920;18.730;2024-02-04T04:57:26;6.60;;;5.83;;
42514;SDS011;28144;49.920;18.730;2024-02-04T04:59:52;8.30;;;5.83;;
42514;SDS011;28144;49.920;18.730;2024-02-04T05:02:18;7.30;;;6.07;;
42514;SDS011;28144;49.920;18.730;2024-02-04T05:04:44;5.20;;;3.97;;
42514;SDS011;28144;49.920;18.730;2024-02-04T05:07:10;5.18;;;3.97;;
42514;SDS011;28144;49.920;18.730;2024-02-04T05:09:36;3.33;;;3.03;;
42514;SDS011;28144;49.920;18.730;2024-02-04T05:12:03;4.00;;;2.92;;
42514;SDS011;28144;49.920;18.730;2024-02-04T05:14:29;3.78;;;3.35;;
42514;SDS011;28144;49.920;18.730;2024-02-04T05:16:54;10.43;;;3.90;;
42514;SDS011;28144;49.920;18.730;2024-02-04T05:19:20;5.53;;;4.13;;
42514;SDS011;28144;49.920;18.730;2024-02-04T05:21:46;4.03;;;3.53;;
42514;SDS011;28144;49.920;18.730;2024-02-04T05:24:12;5.23;;;3.60;;
42514;SDS011;28144;49.920;18.730;2024-02-04T05:26:38;4.68;;;3.00;;
42514;SDS011;28144;49.920;18.730;2024-02-04T05:29:03;4.77;;;3.47;;
42514;SDS011;28144;49.920;18.730;2024-02-04T05:31:29;5.60;;;4.28;;
42514;SDS011;28144;49.920;18.730;2024-02-04T05:33:55;7.37;;;4.33;;
42514;SDS011;28144;49.920;18.730;2024-02-04T05:36:21;6.15;;;5.05;;
42514;SDS011;28144;49.920;18.730;2024-02-04T05:38:47;5.57;;;4.97;;
42514;SDS011;28144;49.920;18.730;2024-02-04T05:41:13;6.43;;;4.80;;
42514;SDS011;28144;49.920;18.730;2024-02-04T05:43:43;6.10;;;4.73;;
42514;SDS011;28144;49.920;18.730;2024-02-04T05:46:08;4.90;;;4.33;;
42514;SDS011;28144;49.920;18.730;2024-02-04T05:48:34;4.57;;;4.13;;
42514;SDS011;28144;49.920;18.730;2024-02-04T05:51:00;6.20;;;4.57;;
42514;SDS011;28144;49.920;18.730;2024-02-04T05:53:26;6.13;;;4.47;;
42514;SDS011;28144;49.920;18.730;2024-02-04T05:55:52;6.70;;;4.30;;
42514;SDS011;28144;49.920;18.730;2024-02-04T05:58:17;5.50;;;4.53;;
42514;SDS011;28144;49.920;18.730;2024-02-04T06:00:43;5.60;;;4.33;;
42514;SDS011;28144;49.920;18.730;2024-02-04T06:03:08;9.63;;;4.60;;
42514;SDS011;28144;49.920;18.730;2024-02-04T06:05:34;8.13;;;4.78;;
42514;SDS011;28144;49.920;18.730;2024-02-04T06:08:00;6.30;;;4.43;;
42514;SDS011;28144;49.920;18.730;2024-02-04T06:10:26;6.43;;;4.53;;
42514;SDS011;28144;49.920;18.730;2024-02-04T06:12:51;5.90;;;4.30;;
42514;SDS011;28144;49.920;18.730;2024-02-04T06:15:17;8.67;;;4.60;;
42514;SDS011;28144;49.920;18.730;2024-02-04T06:17:46;7.77;;;5.60;;
42514;SDS011;28144;49.920;18.730;2024-02-04T06:20:11;7.03;;;5.20;;
42514;SDS011;28144;49.920;18.730;2024-02-04T06:22:37;8.27;;;5.03;;
42514;SDS011;28144;49.920;18.730;2024-02-04T06:25:03;5.53;;;4.83;;
42514;SDS011;28144;49.920;18.730;2024-02-04T06:27:29;7.22;;;4.78;;
42514;SDS011;28144;49.920;18.730;2024-02-04T06:29:56;7.53;;;4.15;;
42514;SDS011;28144;49.920;18.730;2024-02-04T06:32:22;5.27;;;2.63;;
42514;SDS011;28144;49.920;18.730;2024-02-04T06:34:50;6.47;;;2.47;;
42514;SDS011;28144;49.920;18.730;2024-02-04T06:37:16;7.57;;;2.85;;
42514;SDS011;28144;49.920;18.730;2024-02-04T06:39:42;4.10;;;2.20;;
42514;SDS011;28144;49.920;18.730;2024-02-04T06:42:08;5.60;;;2.60;;
42514;SDS011;28144;49.920;18.730;2024-02-04T06:44:34;6.07;;;2.93;;
42514;SDS011;28144;49.920;18.730;2024-02-04T06:47:00;4.07;;;2.13;;
42514;SDS011;28144;49.920;18.730;2024-02-04T06:49:25;8.73;;;2.97;;
42514;SDS011;28144;49.920;18.730;2024-02-04T06:51:51;4.47;;;2.33;;
42514;SDS011;28144;49.920;18.730;2024-02-04T06:54:25;7.13;;;2.90;;
42514;SDS011;28144;49.920;18.730;2024-02-04T06:56:51;2.90;;;1.70;;
42514;SDS011;28144;49.920;18.730;2024-02-04T06:59:18;6.57;;;2.57;;
42514;SDS011;28144;49.920;18.730;2024-02-04T07:01:43;7.77;;;2.50;;
42514;SDS011;28144;49.920;18.730;2024-02-04T07:04:09;4.07;;;2.43;;
42514;SDS011;28144;49.920;18.730;2024-02-04T07:06:35;4.10;;;2.50;;
42514;SDS011;28144;49.920;18.730;2024-02-04T07:09:01;5.30;;;2.20;;
42514;SDS011;28144;49.920;18.730;2024-02-04T07:11:26;5.60;;;2.43;;
42514;SDS011;28144;49.920;18.730;2024-02-04T07:13:52;4.10;;;2.77;;
42514;SDS011;28144;49.920;18.730;2024-02-04T07:16:24;7.33;;;2.80;;
42514;SDS011;28144;49.920;18.730;2024-02-04T07:18:50;9.52;;;2.75;;
42514;SDS011;28144;49.920;18.730;2024-02-04T07:21:16;5.80;;;3.33;;
42514;SDS011;28144;49.920;18.730;2024-02-04T07:23:41;6.87;;;2.80;;
42514;SDS011;28144;49.920;18.730;2024-02-04T07:26:07;5.90;;;3.17;;
42514;SDS011;28144;49.920;18.730;2024-02-04T07:28:34;5.93;;;3.10;;
42514;SDS011;28144;49.920;18.730;2024-02-04T07:30:59;7.00;;;3.20;;
42514;SDS011;28144;49.920;18.730;2024-02-04T07:33:25;7.97;;;3.83;;
42514;SDS011;28144;49.920;18.730;2024-02-04T07:35:51;7.10;;;3.70;;
42514;SDS011;28144;49.920;18.730;2024-02-04T07:38:17;9.30;;;4.20;;
42514;SDS011;28144;49.920;18.730;2024-02-04T07:40:43;9.13;;;4.23;;
42514;SDS011;28144;49.920;18.730;2024-02-04T07:43:08;10.50;;;4.63;;
42514;SDS011;28144;49.920;18.730;2024-02-04T07:45:34;18.47;;;4.53;;
42514;SDS011;28144;49.920;18.730;2024-02-04T07:48:00;8.20;;;5.60;;
42514;SDS011;28144;49.920;18.730;2024-02-04T07:52:53;13.85;;;5.85;;
42514;SDS011;28144;49.920;18.730;2024-02-04T07:55:18;14.97;;;6.20;;
42514;SDS011;28144;49.920;18.730;2024-02-04T07:57:44;11.80;;;6.13;;
42514;SDS011;28144;49.920;18.730;2024-02-04T08:00:10;11.10;;;5.30;;
42514;SDS011;28144;49.920;18.730;2024-02-04T08:02:36;11.25;;;6.20;;
42514;SDS011;28144;49.920;18.730;2024-02-04T08:05:05;17.90;;;11.20;;
42514;SDS011;28144;49.920;18.730;2024-02-04T08:09:57;17.63;;;9.83;;
42514;SDS011;28144;49.920;18.730;2024-02-04T08:12:23;16.97;;;9.20;;
42514;SDS011;28144;49.920;18.730;2024-02-04T08:14:49;15.87;;;9.27;;
42514;SDS011;28144;49.920;18.730;2024-02-04T08:17:14;26.90;;;17.33;;
42514;SDS011;28144;49.920;18.730;2024-02-04T08:19:40;18.73;;;13.30;;
42514;SDS011;28144;49.920;18.730;2024-02-04T08:22:06;19.38;;;10.13;;
42514;SDS011;28144;49.920;18.730;2024-02-04T08:24:32;17.07;;;8.23;;
42514;SDS011;28144;49.920;18.730;2024-02-04T08:26:58;19.83;;;11.60;;
42514;SDS011;28144;49.920;18.730;2024-02-04T08:29:24;19.38;;;12.27;;
42514;SDS011;28144;49.920;18.730;2024-02-04T08:31:52;28.47;;;13.10;;
42514;SDS011;28144;49.920;18.730;2024-02-04T08:34:18;17.60;;;9.90;;
42514;SDS011;28144;49.920;18.730;2024-02-04T08:36:46;15.47;;;7.63;;
42514;SDS011;28144;49.920;18.730;2024-02-04T08:39:11;12.40;;;6.90;;
42514;SDS011;28144;49.920;18.730;2024-02-04T08:41:37;19.17;;;6.60;;
42514;SDS011;28144;49.920;18.730;2024-02-04T08:44:03;11.90;;;6.20;;
42514;SDS011;28144;49.920;18.730;2024-02-04T08:46:29;13.13;;;5.93;;
42514;SDS011;28144;49.920;18.730;2024-02-04T08:48:54;13.20;;;6.47;;
42514;SDS011;28144;49.920;18.730;2024-02-04T08:51:20;12.60;;;6.30;;
42514;SDS011;28144;49.920;18.730;2024-02-04T08:53:46;15.57;;;6.13;;
42514;SDS011;28144;49.920;18.730;2024-02-04T08:56:12;12.30;;;6.63;;
42514;SDS011;28144;49.920;18.730;2024-02-04T08:58:37;10.87;;;5.77;;
42514;SDS011;28144;49.920;18.730;2024-02-04T09:01:04;14.47;;;6.50;;
42514;SDS011;28144;49.920;18.730;2024-02-04T09:05:56;11.82;;;6.55;;
42514;SDS011;28144;49.920;18.730;2024-02-04T09:08:22;15.68;;;7.43;;
42514;SDS011;28144;49.920;18.730;2024-02-04T09:10:48;17.83;;;9.57;;
42514;SDS011;28144;49.920;18.730;2024-02-04T09:13:14;20.30;;;10.00;;
42514;SDS011;28144;49.920;18.730;2024-02-04T09:15:40;17.60;;;8.10;;
42514;SDS011;28144;49.920;18.730;2024-02-04T09:18:05;18.00;;;7.87;;
42514;SDS011;28144;49.920;18.730;2024-02-04T09:20:31;16.77;;;7.97;;
42514;SDS011;28144;49.920;18.730;2024-02-04T09:22:57;18.67;;;7.33;;
42514;SDS011;28144;49.920;18.730;2024-02-04T09:25:24;19.57;;;7.17;;
42514;SDS011;28144;49.920;18.730;2024-02-04T09:27:50;18.13;;;6.67;;
42514;SDS011;28144;49.920;18.730;2024-02-04T09:30:15;15.97;;;7.00;;
42514;SDS011;28144;49.920;18.730;2024-02-04T09:32:41;13.77;;;7.07;;
42514;SDS011;28144;49.920;18.730;2024-02-04T09:35:07;15.30;;;6.77;;
42514;SDS011;28144;49.920;18.730;2024-02-04T09:37:34;15.23;;;7.17;;
42514;SDS011;28144;49.920;18.730;2024-02-04T09:40:00;12.25;;;6.93;;
42514;SDS011;28144;49.920;18.730;2024-02-04T09:42:26;17.90;;;8.07;;
42514;SDS011;28144;49.920;18.730;2024-02-04T09:44:53;13.97;;;8.13;;
42514;SDS011;28144;49.920;18.730;2024-02-04T09:47:20;12.27;;;7.43;;
42514;SDS011;28144;49.920;18.730;2024-02-04T09:52:12;11.70;;;8.23;;
42514;SDS011;28144;49.920;18.730;2024-02-04T09:54:45;10.13;;;7.10;;
42514;SDS011;28144;49.920;18.730;2024-02-04T09:57:16;13.00;;;5.97;;
42514;SDS011;28144;49.920;18.730;2024-02-04T09:59:44;12.00;;;6.68;;
42514;SDS011;28144;49.920;18.730;2024-02-04T10:02:10;10.30;;;6.73;;
42514;SDS011;28144;49.920;18.730;2024-02-04T10:04:36;10.03;;;6.53;;
42514;SDS011;28144;49.920;18.730;2024-02-04T10:07:02;15.93;;;6.67;;
42514;SDS011;28144;49.920;18.730;2024-02-04T10:09:28;11.35;;;6.50;;
42514;SDS011;28144;49.920;18.730;2024-02-04T10:14:20;10.43;;;5.88;;
42514;SDS011;28144;49.920;18.730;2024-02-04T10:16:46;9.60;;;5.70;;
42514;SDS011;28144;49.920;18.730;2024-02-04T10:19:12;7.90;;;5.73;;
42514;SDS011;28144;49.920;18.730;2024-02-04T10:21:37;11.30;;;5.60;;
42514;SDS011;28144;49.920;18.730;2024-02-04T10:24:03;10.10;;;4.73;;
42514;SDS011;28144;49.920;18.730;2024-02-04T10:26:30;5.70;;;3.67;;
42514;SDS011;28144;49.920;18.730;2024-02-04T10:28:57;5.18;;;3.08;;
42514;SDS011;28144;49.920;18.730;2024-02-04T10:31:23;6.78;;;3.25;;
42514;SDS011;28144;49.920;18.730;2024-02-04T10:33:50;3.70;;;2.43;;
42514;SDS011;28144;49.920;18.730;2024-02-04T10:36:17;4.85;;;2.97;;
42514;SDS011;28144;49.920;18.730;2024-02-04T10:38:43;4.27;;;2.70;;
42514;SDS011;28144;49.920;18.730;2024-02-04T10:41:08;3.60;;;2.60;;
42514;SDS011;28144;49.920;18.730;2024-02-04T10:43:38;5.50;;;2.30;;
42514;SDS011;28144;49.920;18.730;2024-02-04T10:46:08;4.18;;;2.60;;
42514;SDS011;28144;49.920;18.730;2024-02-04T10:48:36;5.80;;;2.80;;
42514;SDS011;28144;49.920;18.730;2024-02-04T10:51:14;8.93;;;1.90;;
42514;SDS011;28144;49.920;18.730;2024-02-04T10:53:44;2.93;;;1.70;;
42514;SDS011;28144;49.920;18.730;2024-02-04T10:56:14;3.13;;;1.50;;
42514;SDS011;28144;49.920;18.730;2024-02-04T10:58:45;3.63;;;1.90;;
42514;SDS011;28144;49.920;18.730;2024-02-04T11:01:11;2.30;;;1.70;;
42514;SDS011;28144;49.920;18.730;2024-02-04T11:03:38;4.78;;;2.00;;
42514;SDS011;28144;49.920;18.730;2024-02-04T11:06:04;4.23;;;1.80;;
42514;SDS011;28144;49.920;18.730;2024-02-04T11:08:31;2.75;;;1.52;;
42514;SDS011;28144;49.920;18.730;2024-02-04T11:10:56;3.23;;;1.77;;
42514;SDS011;28144;49.920;18.730;2024-02-04T11:13:22;4.97;;;1.53;;
42514;SDS011;28144;49.920;18.730;2024-02-04T11:15:48;2.38;;;1.55;;
42514;SDS011;28144;49.920;18.730;2024-02-04T11:18:22;2.85;;;1.33;;
42514;SDS011;28144;49.920;18.730;2024-02-04T11:26:41;1.90;;;1.43;;
42514;SDS011;28144;49.920;18.730;2024-02-04T11:29:07;3.55;;;1.33;;
42514;SDS011;28144;49.920;18.730;2024-02-04T11:31:33;3.22;;;1.70;;
42514;SDS011;28144;49.920;18.730;2024-02-04T11:33:59;3.50;;;1.40;;
42514;SDS011;28144;49.920;18.730;2024-02-04T11:36:25;3.53;;;1.75;;
42514;SDS011;28144;49.920;18.730;2024-02-04T11:38:51;2.58;;;1.27;;
42514;SDS011;28144;49.920;18.730;2024-02-04T11:41:24;3.00;;;1.50;;
42514;SDS011;28144;49.920;18.730;2024-02-04T11:43:52;3.10;;;1.40;;
42514;SDS011;28144;49.920;18.730;2024-02-04T11:46:19;3.53;;;1.63;;
42514;SDS011;28144;49.920;18.730;2024-02-04T11:48:51;5.10;;;2.30;;
42514;SDS011;28144;49.920;18.730;2024-02-04T11:51:18;3.37;;;1.80;;
42514;SDS011;28144;49.920;18.730;2024-02-04T11:53:48;2.90;;;1.73;;
42514;SDS011;28144;49.920;18.730;2024-02-04T11:56:14;6.22;;;1.98;;
42514;SDS011;28144;49.920;18.730;2024-02-04T11:58:40;2.75;;;1.85;;
42514;SDS011;28144;49.920;18.730;2024-02-04T12:01:09;2.80;;;1.60;;
42514;SDS011;28144;49.920;18.730;2024-02-04T12:03:36;3.03;;;1.90;;
42514;SDS011;28144;49.920;18.730;2024-02-04T12:06:02;4.80;;;2.13;;
42514;SDS011;28144;49.920;18.730;2024-02-04T12:08:30;3.20;;;1.87;;
42514;SDS011;28144;49.920;18.730;2024-02-04T12:10:57;2.57;;;2.03;;
42514;SDS011;28144;49.920;18.730;2024-02-04T12:13:24;4.70;;;2.08;;
42514;SDS011;28144;49.920;18.730;2024-02-04T12:15:49;3.53;;;1.97;;
42514;SDS011;28144;49.920;18.730;2024-02-04T12:18:15;2.37;;;1.40;;
42514;SDS011;28144;49.920;18.730;2024-02-04T12:20:48;4.73;;;1.50;;
42514;SDS011;28144;49.920;18.730;2024-02-04T12:23:18;3.20;;;1.70;;
42514;SDS011;28144;49.920;18.730;2024-02-04T12:25:44;2.17;;;1.67;;
42514;SDS011;28144;49.920;18.730;2024-02-04T12:28:10;3.97;;;1.75;;
42514;SDS011;28144;49.920;18.730;2024-02-04T12:30:36;2.10;;;1.40;;
42514;SDS011;28144;49.920;18.730;2024-02-04T12:33:02;2.10;;;1.47;;
42514;SDS011;28144;49.920;18.730;2024-02-04T12:35:29;2.13;;;1.70;;
42514;SDS011;28144;49.920;18.730;2024-02-04T12:37:56;1.88;;;1.40;;
42514;SDS011;28144;49.920;18.730;2024-02-04T12:42:55;2.17;;;1.50;;
42514;SDS011;28144;49.920;18.730;2024-02-04T12:45:24;3.23;;;2.20;;
42514;SDS011;28144;49.920;18.730;2024-02-04T12:47:55;3.27;;;1.70;;
42514;SDS011;28144;49.920;18.730;2024-02-04T12:50:22;2.73;;;1.50;;
42514;SDS011;28144;49.920;18.730;2024-02-04T12:52:48;2.58;;;1.67;;
42514;SDS011;28144;49.920;18.730;2024-02-04T12:55:25;2.60;;;1.50;;
42514;SDS011;28144;49.920;18.730;2024-02-04T13:00:33;6.17;;;2.40;;
42514;SDS011;28144;49.920;18.730;2024-02-04T13:02:59;4.18;;;2.08;;
42514;SDS011;28144;49.920;18.730;2024-02-04T13:05:25;4.00;;;1.60;;
42514;SDS011;28144;49.920;18.730;2024-02-04T13:07:53;2.40;;;1.58;;
42514;SDS011;28144;49.920;18.730;2024-02-04T13:10:21;3.40;;;2.00;;
42514;SDS011;28144;49.920;18.730;2024-02-04T13:12:57;3.77;;;1.77;;
42514;SDS011;28144;49.920;18.730;2024-02-04T13:15:32;2.10;;;1.43;;
42514;SDS011;28144;49.920;18.730;2024-02-04T13:18:00;3.30;;;1.80;;
42514;SDS011;28144;49.920;18.730;2024-02-04T13:20:26;2.83;;;1.50;;
42514;SDS011;28144;49.920;18.730;2024-02-04T13:22:51;3.80;;;1.40;;
42514;SDS011;28144;49.920;18.730;2024-02-04T13:25:20;2.83;;;1.80;;
42514;SDS011;28144;49.920;18.730;2024-02-04T13:27:49;7.73;;;1.73;;
42514;SDS011;28144;49.920;18.730;2024-02-04T13:30:18;3.00;;;1.70;;
42514;SDS011;28144;49.920;18.730;2024-02-04T13:32:47;1.90;;;1.43;;
42514;SDS011;28144;49.920;18.730;2024-02-04T13:35:12;3.47;;;1.43;;
42514;SDS011;28144;49.920;18.730;2024-02-04T13:37:44;2.83;;;1.60;;
42514;SDS011;28144;49.920;18.730;2024-02-04T13:40:13;3.83;;;1.90;;
42514;SDS011;28144;49.920;18.730;2024-02-04T13:42:43;3.10;;;1.83;;
42514;SDS011;28144;49.920;18.730;2024-02-04T13:45:09;3.15;;;1.80;;
42514;SDS011;28144;49.920;18.730;2024-02-04T13:47:35;4.88;;;2.40;;
42514;SDS011;28144;49.920;18.730;2024-02-04T13:50:03;4.78;;;2.20;;
42514;SDS011;28144;49.920;18.730;2024-02-04T13:52:29;4.37;;;2.33;;
42514;SDS011;28144;49.920;18.730;2024-02-04T13:54:57;4.33;;;2.07;;
42514;SDS011;28144;49.920;18.730;2024-02-04T13:57:23;9.63;;;3.43;;
42514;SDS011;28144;49.920;18.730;2024-02-04T13:59:51;8.10;;;3.90;;
42514;SDS011;28144;49.920;18.730;2024-02-04T14:02:17;9.75;;;4.32;;
42514;SDS011;28144;49.920;18.730;2024-02-04T14:04:46;8.03;;;3.97;;
42514;SDS011;28144;49.920;18.730;2024-02-04T14:07:12;6.90;;;4.13;;
42514;SDS011;28144;49.920;18.730;2024-02-04T14:09:41;9.93;;;5.40;;
42514;SDS011;28144;49.920;18.730;2024-02-04T14:12:08;9.57;;;5.30;;
42514;SDS011;28144;49.920;18.730;2024-02-04T14:14:33;12.37;;;7.10;;
42514;SDS011;28144;49.920;18.730;2024-02-04T14:17:00;13.63;;;6.20;;
42514;SDS011;28144;49.920;18.730;2024-02-04T14:19:25;10.00;;;6.73;;
42514;SDS011;28144;49.920;18.730;2024-02-04T14:21:51;14.38;;;11.10;;
42514;SDS011;28144;49.920;18.730;2024-02-04T14:24:21;18.53;;;15.00;;
42514;SDS011;28144;49.920;18.730;2024-02-04T14:26:46;18.20;;;12.63;;
42514;SDS011;28144;49.920;18.730;2024-02-04T14:29:13;16.25;;;11.18;;
42514;SDS011;28144;49.920;18.730;2024-02-04T14:31:39;12.05;;;6.97;;
42514;SDS011;28144;49.920;18.730;2024-02-04T14:34:05;10.80;;;5.40;;
42514;SDS011;28144;49.920;18.730;2024-02-04T14:36:31;11.60;;;5.80;;
42514;SDS011;28144;49.920;18.730;2024-02-04T14:38:56;18.93;;;6.17;;
42514;SDS011;28144;49.920;18.730;2024-02-04T14:41:26;17.73;;;6.87;;
42514;SDS011;28144;49.920;18.730;2024-02-04T14:43:52;15.30;;;6.87;;
42514;SDS011;28144;49.920;18.730;2024-02-04T14:46:18;16.30;;;7.53;;
42514;SDS011;28144;49.920;18.730;2024-02-04T14:48:44;18.17;;;8.20;;
42514;SDS011;28144;49.920;18.730;2024-02-04T14:51:09;19.87;;;9.80;;
42514;SDS011;28144;49.920;18.730;2024-02-04T14:53:36;18.50;;;10.88;;
42514;SDS011;28144;49.920;18.730;2024-02-04T14:56:02;16.17;;;8.35;;
42514;SDS011;28144;49.920;18.730;2024-02-04T14:58:28;16.97;;;8.00;;